createdAt,value
2016-02-03T00:01:50.122Z,0
2016-02-03T00:02:02.780Z,0
2016-02-03T00:03:02.767Z,0
2016-02-03T00:04:02.770Z,0
2016-02-03T00:05:02.788Z,0
2016-02-03T00:06:02.822Z,0
2016-02-03T00:07:02.794Z,0
2016-02-03T00:08:02.813Z,0
2016-02-03T00:09:02.830Z,0
2016-02-03T00:10:02.817Z,0
2016-02-03T00:11:02.836Z,0
2016-02-03T00:12:02.823Z,0
2016-02-03T00:13:02.857Z,0
2016-02-03T00:14:02.829Z,0
2016-02-03T00:15:02.865Z,0
2016-02-03T00:16:02.851Z,0
2016-02-03T00:17:02.854Z,0
2016-02-03T00:18:02.856Z,0
2016-02-03T00:19:02.876Z,0
2016-02-03T00:20:02.863Z,0
2016-02-03T00:21:02.866Z,0
2016-02-03T00:22:02.915Z,0
2016-02-03T00:23:02.886Z,0
2016-02-03T00:24:02.894Z,0
2016-02-03T00:25:02.880Z,0
2016-02-03T00:26:02.899Z,0
2016-02-03T00:27:02.932Z,0
2016-02-03T00:28:02.908Z,0
2016-02-03T00:29:02.911Z,0
2016-02-03T00:30:02.929Z,0
2016-02-03T00:31:02.791Z,0
2016-02-03T00:32:02.966Z,0
2016-02-03T00:33:02.933Z,0
2016-02-03T00:34:02.937Z,0
2016-02-03T00:35:02.970Z,0
2016-02-03T00:36:02.958Z,0
2016-02-03T00:37:02.960Z,0
2016-02-03T00:38:02.995Z,0
2016-02-03T00:39:02.967Z,0
2016-02-03T00:40:02.984Z,0
2016-02-03T00:41:03.015Z,0
2016-02-03T00:42:02.971Z,0
2016-02-03T00:43:02.992Z,0
2016-02-03T00:44:03.001Z,0
2016-02-03T00:45:03.035Z,0
2016-02-03T00:46:03.006Z,0
2016-02-03T00:47:02.868Z,0
2016-02-03T00:48:03.011Z,0
2016-02-03T00:49:03.014Z,0
2016-02-03T00:50:03.065Z,0
2016-02-03T00:51:03.037Z,0
2016-02-03T00:52:03.040Z,0
2016-02-03T00:53:02.921Z,0
2016-02-03T00:54:03.063Z,0
2016-02-03T00:55:03.082Z,0
2016-02-03T00:56:03.100Z,0
2016-02-03T00:57:02.917Z,0
2016-02-03T00:58:03.075Z,0
2016-02-03T00:59:03.077Z,0
2016-02-03T01:02:21.040Z,0
2016-02-03T01:02:49.774Z,0
2016-02-03T01:03:49.586Z,0
2016-02-03T01:04:49.735Z,0
2016-02-03T01:05:49.737Z,0
2016-02-03T01:06:49.773Z,0
2016-02-03T01:07:49.744Z,0
2016-02-03T01:08:49.752Z,0
2016-02-03T01:09:49.785Z,0
2016-02-03T01:10:49.758Z,0
2016-02-03T01:11:49.775Z,0
2016-02-03T01:12:49.794Z,0
2016-02-03T01:13:49.797Z,0
2016-02-03T01:14:49.815Z,0
2016-02-03T01:15:49.787Z,0
2016-02-03T01:16:49.650Z,0
2016-02-03T01:17:49.808Z,0
2016-02-03T01:18:49.810Z,0
2016-02-03T01:19:49.813Z,0
2016-02-03T01:20:49.831Z,0
2016-02-03T01:21:49.801Z,0
2016-02-03T01:22:49.819Z,0
2016-02-03T01:23:49.869Z,0
2016-02-03T01:24:49.827Z,0
2016-02-03T01:25:49.847Z,0
2016-02-03T01:26:49.881Z,0
2016-02-03T01:27:49.697Z,0
2016-02-03T01:28:49.871Z,0
2016-02-03T01:29:49.874Z,0
2016-02-03T01:34:46.684Z,0
2016-02-03T01:34:59.340Z,0
2016-02-03T01:35:59.360Z,0
2016-02-03T01:36:59.362Z,0
2016-02-03T01:37:59.349Z,0
2016-02-03T01:38:59.367Z,0
2016-02-03T01:39:59.418Z,0
2016-02-03T01:40:59.358Z,0
2016-02-03T01:41:59.392Z,0
2016-02-03T01:42:59.379Z,0
2016-02-03T01:43:59.382Z,0
2016-02-03T01:44:59.401Z,0
2016-02-03T01:45:59.403Z,0
2016-02-03T01:46:59.406Z,0
2016-02-03T01:47:59.439Z,0
2016-02-03T01:48:59.458Z,0
2016-02-03T01:49:59.429Z,0
2016-02-03T01:50:59.417Z,0
2016-02-03T01:51:59.279Z,0
2016-02-03T01:52:59.284Z,0
2016-02-03T01:53:59.460Z,0
2016-02-03T01:54:59.478Z,0
2016-02-03T01:55:59.480Z,0
2016-02-03T01:56:59.499Z,0
2016-02-03T01:57:59.470Z,0
2016-02-03T01:58:59.462Z,0
2016-02-03T02:01:50.017Z,0
2016-02-03T02:02:14.786Z,0
2016-02-03T02:03:14.804Z,0
2016-02-03T02:04:14.791Z,0
2016-02-03T02:05:14.794Z,0
2016-02-03T02:06:14.811Z,0
2016-02-03T02:07:14.800Z,0
2016-02-03T02:08:14.833Z,0
2016-02-03T02:09:14.820Z,0
2016-02-03T02:10:14.838Z,0
2016-02-03T02:11:14.843Z,0
2016-02-03T02:12:14.876Z,0
2016-02-03T02:13:14.848Z,0
2016-02-03T02:14:14.865Z,0
2016-02-03T02:15:14.889Z,0
2016-02-03T02:16:14.845Z,0
2016-02-03T02:17:14.863Z,0
2016-02-03T02:18:14.898Z,0
2016-02-03T02:19:14.870Z,0
2016-02-03T02:20:14.872Z,0
2016-02-03T02:21:14.906Z,0
2016-02-03T02:22:14.885Z,0
2016-02-03T02:23:14.887Z,0
2016-02-03T02:24:14.922Z,0
2016-02-03T02:25:14.909Z,0
2016-02-03T02:26:14.928Z,0
2016-02-03T02:27:14.945Z,0
2016-02-03T02:28:14.917Z,0
2016-02-03T02:29:14.950Z,0
2016-02-03T02:31:26.598Z,0
2016-02-03T02:31:39.254Z,0
2016-02-03T02:32:39.306Z,0
2016-02-03T02:33:39.262Z,0
2016-02-03T02:34:39.282Z,0
2016-02-03T02:35:39.299Z,0
2016-02-03T02:36:39.270Z,0
2016-02-03T02:37:39.292Z,0
2016-02-03T02:38:39.325Z,0
2016-02-03T02:39:39.298Z,0
2016-02-03T02:40:39.300Z,0
2016-02-03T02:41:39.318Z,0
2016-02-03T02:42:39.323Z,0
2016-02-03T02:43:39.358Z,0
2016-02-03T02:44:39.329Z,0
2016-02-03T02:45:39.332Z,0
2016-02-03T02:46:39.334Z,0
2016-02-03T02:47:39.368Z,0
2016-02-03T02:48:39.371Z,0
2016-02-03T02:49:39.348Z,0
2016-02-03T02:50:39.350Z,0
2016-02-03T02:51:39.493Z,0
2016-02-03T02:52:39.372Z,0
2016-02-03T02:53:39.375Z,0
2016-02-03T02:54:39.393Z,0
2016-02-03T02:55:39.093Z,0
2016-02-03T02:56:44.303Z,0
2016-02-03T02:57:39.682Z,0
2016-02-03T02:58:40.088Z,0
2016-02-03T02:59:39.517Z,0
2016-02-03T03:00:59.692Z,0
2016-02-03T03:01:39.429Z,0
2016-02-03T03:02:39.431Z,0
2016-02-03T03:03:39.543Z,0
2016-02-03T03:04:39.453Z,0
2016-02-03T03:05:39.423Z,0
2016-02-03T03:06:39.443Z,0
2016-02-03T03:07:39.445Z,0
2016-02-03T03:08:39.481Z,0
2016-02-03T03:09:39.484Z,0
2016-02-03T03:10:39.470Z,0
2016-02-03T03:11:39.473Z,0
2016-02-03T03:12:39.492Z,0
2016-02-03T03:13:39.480Z,0
2016-02-03T03:14:39.514Z,0
2016-02-03T03:15:39.486Z,0
2016-02-03T03:16:39.489Z,0
2016-02-03T03:17:39.523Z,0
2016-02-03T03:18:39.509Z,0
2016-02-03T03:19:39.512Z,0
2016-02-03T03:20:39.532Z,0
2016-02-03T03:21:39.535Z,0
2016-02-03T03:22:39.553Z,0
2016-02-03T03:23:39.555Z,0
2016-02-03T03:24:39.527Z,0
2016-02-03T03:25:39.547Z,0
2016-02-03T03:26:39.580Z,0
2016-02-03T03:27:39.553Z,0
2016-02-03T03:28:39.570Z,0
2016-02-03T03:29:39.590Z,0
2016-02-03T03:31:05.248Z,0
2016-02-03T03:31:39.579Z,0
2016-02-03T03:32:39.614Z,0
2016-02-03T03:33:39.616Z,0
2016-02-03T03:34:39.432Z,0
2016-02-03T03:35:39.622Z,0
2016-02-03T03:36:39.656Z,0
2016-02-03T03:37:39.596Z,0
2016-02-03T03:38:39.629Z,0
2016-02-03T03:39:39.633Z,0
2016-02-03T03:40:39.495Z,0
2016-02-03T03:41:39.654Z,0
2016-02-03T03:42:39.640Z,0
2016-02-03T03:43:39.643Z,0
2016-02-03T03:44:39.649Z,0
2016-02-03T03:45:39.683Z,0
2016-02-03T03:46:39.529Z,0
2016-02-03T03:47:39.688Z,0
2016-02-03T03:48:39.675Z,0
2016-02-03T03:49:39.694Z,0
2016-02-03T03:50:39.697Z,0
2016-02-03T03:51:39.700Z,0
2016-02-03T03:52:39.734Z,0
2016-02-03T03:53:39.721Z,0
2016-02-03T03:54:39.724Z,0
2016-02-03T03:55:39.743Z,0
2016-02-03T03:56:39.715Z,0
2016-02-03T03:57:39.748Z,0
2016-02-03T03:58:39.736Z,0
2016-02-03T03:59:39.739Z,0
2016-02-03T04:04:11.222Z,0
2016-02-03T04:04:29.007Z,0
2016-02-03T04:05:29.009Z,0
2016-02-03T04:06:29.027Z,0
2016-02-03T04:07:29.015Z,0
2016-02-03T04:08:29.017Z,0
2016-02-03T04:09:29.051Z,0
2016-02-03T04:10:28.914Z,0
2016-02-03T04:11:29.042Z,0
2016-02-03T04:12:29.060Z,0
2016-02-03T04:13:29.048Z,0
2016-02-03T04:14:29.050Z,0
2016-02-03T04:15:29.087Z,0
2016-02-03T04:16:29.119Z,0
2016-02-03T04:17:29.092Z,0
2016-02-03T04:18:29.078Z,0
2016-02-03T04:19:29.113Z,0
2016-02-03T04:20:29.083Z,0
2016-02-03T04:21:29.086Z,0
2016-02-03T04:22:29.106Z,0
2016-02-03T04:23:29.124Z,0
2016-02-03T04:24:29.127Z,0
2016-02-03T04:25:29.130Z,0
2016-02-03T04:26:29.118Z,0
2016-02-03T04:27:29.139Z,0
2016-02-03T04:28:29.141Z,0
2016-02-03T04:29:29.131Z,0
2016-02-03T04:33:23.313Z,0
2016-02-03T04:34:18.412Z,0
2016-02-03T04:35:18.446Z,0
2016-02-03T04:36:18.417Z,0
2016-02-03T04:37:18.436Z,0
2016-02-03T04:38:18.438Z,0
2016-02-03T04:39:18.425Z,0
2016-02-03T04:40:18.444Z,0
2016-02-03T04:41:18.493Z,0
2016-02-03T04:42:18.463Z,0
2016-02-03T04:43:18.466Z,0
2016-02-03T04:44:18.468Z,0
2016-02-03T04:45:18.487Z,0
2016-02-03T04:46:18.474Z,0
2016-02-03T04:47:18.477Z,0
2016-02-03T04:48:18.511Z,0
2016-02-03T04:49:18.483Z,0
2016-02-03T04:50:18.501Z,0
2016-02-03T04:51:18.534Z,0
2016-02-03T04:52:18.506Z,0
2016-02-03T04:53:18.494Z,0
2016-02-03T04:54:18.544Z,0
2016-02-03T04:55:18.547Z,0
2016-02-03T04:56:18.519Z,0
2016-02-03T04:57:18.552Z,0
2016-02-03T04:58:18.524Z,0
2016-02-03T04:59:18.543Z,0
2016-02-03T05:01:10.126Z,0
2016-02-03T05:01:22.798Z,0
2016-02-03T05:02:22.769Z,0
2016-02-03T05:03:22.788Z,0
2016-02-03T05:04:22.826Z,0
2016-02-03T05:05:22.788Z,0
2016-02-03T05:06:22.807Z,0
2016-02-03T05:07:22.871Z,0
2016-02-03T05:08:22.843Z,0
2016-02-03T05:09:22.830Z,0
2016-02-03T05:10:22.818Z,0
2016-02-03T05:11:22.820Z,0
2016-02-03T05:12:22.855Z,0
2016-02-03T05:13:22.844Z,0
2016-02-03T05:14:22.847Z,0
2016-02-03T05:15:22.866Z,0
2016-02-03T05:16:22.868Z,0
2016-02-03T05:17:22.872Z,0
2016-02-03T05:18:22.875Z,0
2016-02-03T05:19:22.877Z,0
2016-02-03T05:20:22.724Z,0
2016-02-03T05:21:22.898Z,0
2016-02-03T05:22:22.885Z,0
2016-02-03T05:23:22.888Z,0
2016-02-03T05:24:22.924Z,0
2016-02-03T05:25:22.912Z,0
2016-02-03T05:26:22.899Z,0
2016-02-03T05:27:22.933Z,0
2016-02-03T05:28:22.748Z,0
2016-02-03T05:29:22.926Z,0
2016-02-03T05:30:43.151Z,0
2016-02-03T05:31:22.932Z,0
2016-02-03T05:32:22.934Z,0
2016-02-03T05:33:22.953Z,0
2016-02-03T05:34:22.956Z,0
2016-02-03T05:35:22.975Z,0
2016-02-03T05:36:22.962Z,0
2016-02-03T05:37:22.996Z,0
2016-02-03T05:38:22.972Z,0
2016-02-03T05:39:22.992Z,0
2016-02-03T05:40:23.010Z,0
2016-02-03T05:41:22.982Z,0
2016-02-03T05:42:23.016Z,0
2016-02-03T05:43:23.004Z,0
2016-02-03T05:44:23.008Z,0
2016-02-03T05:45:23.010Z,0
2016-02-03T05:46:23.028Z,0
2016-02-03T05:47:23.030Z,0
2016-02-03T05:48:23.050Z,0
2016-02-03T05:49:23.036Z,0
2016-02-03T05:50:23.039Z,0
2016-02-03T05:51:23.057Z,0
2016-02-03T05:52:23.060Z,0
2016-02-03T05:53:23.064Z,0
2016-02-03T05:54:23.082Z,0
2016-02-03T05:55:23.053Z,0
2016-02-03T05:56:23.091Z,0
2016-02-03T05:57:23.109Z,0
2016-02-03T05:58:23.095Z,0
2016-02-03T05:59:23.084Z,0
2016-02-03T06:06:42.961Z,0
2016-02-03T06:07:01.617Z,0
2016-02-03T06:08:01.609Z,0
2016-02-03T06:09:01.626Z,0
2016-02-03T06:10:01.630Z,0
2016-02-03T06:11:01.632Z,0
2016-02-03T06:12:01.651Z,0
2016-02-03T06:13:01.668Z,0
2016-02-03T06:14:01.657Z,0
2016-02-03T06:15:01.663Z,0
2016-02-03T06:16:01.666Z,0
2016-02-03T06:17:01.668Z,0
2016-02-03T06:18:01.687Z,0
2016-02-03T06:19:01.689Z,0
2016-02-03T06:20:01.693Z,0
2016-02-03T06:21:01.695Z,0
2016-02-03T06:22:01.698Z,0
2016-02-03T06:23:01.740Z,0
2016-02-03T06:24:01.696Z,0
2016-02-03T06:25:01.700Z,0
2016-02-03T06:26:01.765Z,0
2016-02-03T06:27:01.740Z,0
2016-02-03T06:28:01.727Z,0
2016-02-03T06:29:01.746Z,0
2016-02-03T06:36:12.107Z,0
2016-02-03T06:36:24.751Z,0
2016-02-03T06:37:24.816Z,0
2016-02-03T06:38:24.757Z,0
2016-02-03T06:39:24.790Z,0
2016-02-03T06:40:24.824Z,0
2016-02-03T06:41:24.780Z,0
2016-02-03T06:42:24.783Z,0
2016-02-03T06:43:24.801Z,0
2016-02-03T06:44:24.788Z,0
2016-02-03T06:45:24.822Z,0
2016-02-03T06:46:24.812Z,0
2016-02-03T06:47:24.814Z,0
2016-02-03T06:48:24.833Z,0
2016-02-03T06:49:24.819Z,0
2016-02-03T06:50:24.838Z,0
2016-02-03T06:51:24.857Z,0
2016-02-03T06:52:24.847Z,0
2016-02-03T06:53:24.854Z,0
2016-02-03T06:54:24.887Z,0
2016-02-03T06:55:24.874Z,0
2016-02-03T06:56:24.893Z,0
2016-02-03T06:57:24.896Z,0
2016-02-03T06:58:24.869Z,0
2016-02-03T06:59:24.872Z,0
2016-02-03T07:03:34.346Z,0
2016-02-03T07:04:14.143Z,0
2016-02-03T07:05:14.119Z,0
2016-02-03T07:06:14.112Z,0
2016-02-03T07:07:14.138Z,0
2016-02-03T07:08:14.105Z,0
2016-02-03T07:09:14.136Z,0
2016-02-03T07:10:14.120Z,0
2016-02-03T07:11:14.151Z,0
2016-02-03T07:12:14.119Z,5
2016-02-03T07:13:14.135Z,5
2016-02-03T07:14:14.121Z,5
2016-02-03T07:15:14.137Z,5
2016-02-03T07:16:14.124Z,5
2016-02-03T07:17:14.156Z,5
2016-02-03T07:18:14.175Z,5
2016-02-03T07:19:14.145Z,5
2016-02-03T07:20:14.163Z,5
2016-02-03T07:21:14.167Z,5
2016-02-03T07:22:14.168Z,5
2016-02-03T07:23:14.172Z,5
2016-02-03T07:24:14.238Z,5
2016-02-03T07:25:14.193Z,5
2016-02-03T07:26:14.180Z,5
2016-02-03T07:27:14.183Z,5
2016-02-03T07:28:14.201Z,5
2016-02-03T07:29:14.204Z,5
2016-02-03T07:36:12.976Z,5
2016-02-03T07:36:52.714Z,5
2016-02-03T07:37:52.591Z,5
2016-02-03T07:38:52.750Z,5
2016-02-03T07:39:52.753Z,5
2016-02-03T07:40:52.740Z,10
2016-02-03T07:41:52.790Z,10
2016-02-03T07:42:52.762Z,10
2016-02-03T07:43:52.764Z,10
2016-02-03T07:44:52.768Z,10
2016-02-03T07:45:52.770Z,5
2016-02-03T07:46:52.773Z,5
2016-02-03T07:47:52.775Z,10
2016-02-03T07:48:52.807Z,10
2016-02-03T07:49:52.794Z,10
2016-02-03T07:50:52.796Z,10
2016-02-03T07:51:52.831Z,10
2016-02-03T07:52:52.850Z,10
2016-02-03T07:53:52.821Z,10
2016-02-03T07:54:52.839Z,10
2016-02-03T07:55:52.873Z,10
2016-02-03T07:56:52.829Z,10
2016-02-03T07:57:52.863Z,10
2016-02-03T07:58:52.850Z,10
2016-02-03T07:59:52.869Z,10
2016-02-03T08:03:51.161Z,15
2016-02-03T08:04:42.116Z,15
2016-02-03T08:05:42.135Z,15
2016-02-03T08:06:42.168Z,10
2016-02-03T08:07:42.141Z,15
2016-02-03T08:08:42.159Z,20
2016-02-03T08:09:42.193Z,25
2016-02-03T08:10:42.164Z,25
2016-02-03T08:11:42.183Z,25
2016-02-03T08:12:42.169Z,25
2016-02-03T08:13:42.189Z,40
2016-02-03T08:14:42.191Z,45
2016-02-03T08:15:42.210Z,50
2016-02-03T08:16:42.196Z,50
2016-02-03T08:17:42.230Z,50
2016-02-03T08:18:42.218Z,50
2016-02-03T08:19:42.221Z,55
2016-02-03T08:20:42.258Z,50
2016-02-03T08:21:42.245Z,50
2016-02-03T08:22:42.247Z,50
2016-02-03T08:23:42.314Z,50
2016-02-03T08:24:42.269Z,50
2016-02-03T08:25:42.287Z,45
2016-02-03T08:26:42.274Z,45
2016-02-03T08:27:42.292Z,45
2016-02-03T08:28:42.311Z,45
2016-02-03T08:29:42.298Z,45
2016-02-03T08:31:02.535Z,40
2016-02-03T08:31:42.319Z,35
2016-02-03T08:32:42.323Z,30
2016-02-03T08:33:42.342Z,35
2016-02-03T08:34:42.328Z,35
2016-02-03T08:35:42.362Z,35
2016-02-03T08:36:42.349Z,35
2016-02-03T08:37:42.352Z,35
2016-02-03T08:38:42.369Z,30
2016-02-03T08:39:42.358Z,30
2016-02-03T08:40:42.376Z,30
2016-02-03T08:41:42.395Z,30
2016-02-03T08:42:42.397Z,30
2016-02-03T08:43:42.400Z,35
2016-02-03T08:44:42.404Z,40
2016-02-03T08:45:42.407Z,45
2016-02-03T08:46:42.411Z,50
2016-02-03T08:47:42.428Z,50
2016-02-03T08:48:42.436Z,55
2016-02-03T08:49:42.438Z,55
2016-02-03T08:50:42.441Z,60
2016-02-03T08:51:42.446Z,60
2016-02-03T08:52:42.465Z,50
2016-02-03T08:53:42.483Z,35
2016-02-03T08:54:42.518Z,30
2016-02-03T08:55:42.489Z,15
2016-02-03T08:56:42.477Z,10
2016-02-03T08:57:42.480Z,5
2016-02-03T08:58:42.514Z,5
2016-02-03T08:59:42.501Z,5
2016-02-03T09:00:42.519Z,5
2016-02-03T09:01:42.522Z,10
2016-02-03T09:02:42.525Z,20
2016-02-03T09:03:42.393Z,25
2016-02-03T09:04:42.543Z,30
2016-02-03T09:05:42.553Z,35
2016-02-03T09:06:42.571Z,40
2016-02-03T09:07:42.559Z,40
2016-02-03T09:08:42.420Z,40
2016-02-03T09:09:42.579Z,50
2016-02-03T09:10:42.583Z,55
2016-02-03T09:11:42.585Z,65
2016-02-03T09:12:42.604Z,75
2016-02-03T09:13:42.591Z,100
2016-02-03T09:14:42.597Z,110
2016-02-03T09:15:42.630Z,135
2016-02-03T09:16:42.649Z,155
2016-02-03T09:17:42.635Z,175
2016-02-03T09:18:42.655Z,650
2016-02-03T09:19:42.628Z,580
2016-02-03T09:20:42.643Z,390
2016-02-03T09:21:42.522Z,335
2016-02-03T09:22:42.702Z,175
2016-02-03T09:23:42.674Z,125
2016-02-03T09:24:42.708Z,120
2016-02-03T09:25:42.694Z,130
2016-02-03T09:26:42.697Z,235
2016-02-03T09:27:42.731Z,145
2016-02-03T09:28:42.718Z,145
2016-02-03T09:29:42.736Z,115
2016-02-03T09:37:12.803Z,650
2016-02-03T09:37:25.459Z,640
2016-02-03T09:38:25.492Z,525
2016-02-03T09:39:25.479Z,160
2016-02-03T09:40:25.497Z,300
2016-02-03T09:41:25.547Z,600
2016-02-03T09:42:25.520Z,580
2016-02-03T09:43:25.522Z,315
2016-02-03T09:44:25.572Z,590
2016-02-03T09:45:25.590Z,555
2016-02-03T09:46:25.545Z,595
2016-02-03T09:47:25.581Z,595
2016-02-03T09:48:25.568Z,275
2016-02-03T09:49:25.586Z,500
2016-02-03T09:50:25.605Z,130
2016-02-03T09:51:25.608Z,245
2016-02-03T09:52:25.642Z,185
2016-02-03T09:53:25.644Z,135
2016-02-03T09:54:25.647Z,360
2016-02-03T09:55:25.650Z,130
2016-02-03T09:56:25.669Z,340
2016-02-03T09:57:25.671Z,115
2016-02-03T09:58:25.690Z,205
2016-02-03T09:59:25.723Z,210
2016-02-03T10:07:01.231Z,215
2016-02-03T10:07:13.919Z,170
2016-02-03T10:08:13.889Z,475
2016-02-03T10:09:13.907Z,365
2016-02-03T10:10:13.927Z,415
2016-02-03T10:11:13.960Z,350
2016-02-03T10:12:13.963Z,370
2016-02-03T10:13:13.952Z,345
2016-02-03T10:14:13.971Z,360
2016-02-03T10:15:13.990Z,335
2016-02-03T10:16:13.977Z,320
2016-02-03T10:17:13.995Z,340
2016-02-03T10:18:14.015Z,340
2016-02-03T10:19:14.027Z,315
2016-02-03T10:20:14.030Z,255
2016-02-03T10:21:13.877Z,155
2016-02-03T10:22:14.036Z,270
2016-02-03T10:23:14.054Z,225
2016-02-03T10:24:14.088Z,115
2016-02-03T10:25:14.075Z,120
2016-02-03T10:26:14.095Z,220
2016-02-03T10:27:14.112Z,115
2016-02-03T10:28:14.100Z,130
2016-02-03T10:29:14.117Z,135
2016-02-03T10:35:34.340Z,135
2016-02-03T10:35:46.997Z,120
2016-02-03T10:36:46.999Z,125
2016-02-03T10:37:47.036Z,115
2016-02-03T10:38:47.007Z,120
2016-02-03T10:39:47.010Z,120
2016-02-03T10:40:47.060Z,100
2016-02-03T10:41:47.047Z,95
2016-02-03T10:42:47.049Z,110
2016-02-03T10:43:47.068Z,110
2016-02-03T10:44:47.088Z,110
2016-02-03T10:45:47.075Z,105
2016-02-03T10:46:47.109Z,115
2016-02-03T10:47:47.081Z,105
2016-02-03T10:48:47.098Z,105
2016-02-03T10:49:47.476Z,120
2016-02-03T10:50:47.151Z,125
2016-02-03T10:51:47.137Z,110
2016-02-03T10:52:47.125Z,115
2016-02-03T10:53:47.148Z,115
2016-02-03T10:54:47.151Z,105
2016-02-03T10:55:47.169Z,110
2016-02-03T10:56:47.173Z,110
2016-02-03T10:57:47.175Z,110
2016-02-03T10:58:47.209Z,105
2016-02-03T10:59:47.181Z,95
2016-02-03T11:01:38.734Z,90
2016-02-03T11:01:51.406Z,90
2016-02-03T11:02:51.409Z,85
2016-02-03T11:03:51.412Z,95
2016-02-03T11:04:51.415Z,105
2016-02-03T11:05:51.449Z,105
2016-02-03T11:06:51.436Z,100
2016-02-03T11:07:51.438Z,100
2016-02-03T11:08:51.444Z,100
2016-02-03T11:09:51.463Z,105
2016-02-03T11:10:51.497Z,110
2016-02-03T11:11:51.468Z,100
2016-02-03T11:12:51.486Z,95
2016-02-03T11:13:51.473Z,100
2016-02-03T11:14:51.508Z,100
2016-02-03T11:15:51.499Z,120
2016-02-03T11:16:51.534Z,115
2016-02-03T11:17:51.505Z,120
2016-02-03T11:18:51.540Z,130
2016-02-03T11:19:51.542Z,135
2016-02-03T11:20:51.562Z,135
2016-02-03T11:21:51.564Z,125
2016-02-03T11:22:51.536Z,115
2016-02-03T11:23:51.554Z,115
2016-02-03T11:24:51.573Z,110
2016-02-03T11:25:51.592Z,110
2016-02-03T11:26:51.595Z,115
2016-02-03T11:27:51.599Z,115
2016-02-03T11:28:51.586Z,115
2016-02-03T11:29:51.589Z,105
2016-02-03T11:32:45.785Z,120
2016-02-03T11:32:58.457Z,125
2016-02-03T11:33:58.444Z,125
2016-02-03T11:34:58.450Z,125
2016-02-03T11:35:58.483Z,140
2016-02-03T11:36:58.486Z,150
2016-02-03T11:37:58.489Z,140
2016-02-03T11:38:58.491Z,120
2016-02-03T11:39:58.496Z,110
2016-02-03T11:40:58.514Z,115
2016-02-03T11:41:58.502Z,120
2016-02-03T11:42:58.535Z,125
2016-02-03T11:43:58.538Z,120
2016-02-03T11:44:58.541Z,115
2016-02-03T11:45:58.559Z,105
2016-02-03T11:46:58.390Z,120
2016-02-03T11:47:58.549Z,120
2016-02-03T11:48:58.571Z,110
2016-02-03T11:49:58.606Z,120
2016-02-03T11:50:58.577Z,120
2016-02-03T11:51:58.582Z,115
2016-02-03T11:52:58.584Z,130
2016-02-03T11:53:58.619Z,125
2016-02-03T11:54:58.606Z,125
2016-02-03T11:55:58.469Z,135
2016-02-03T11:56:58.611Z,120
2016-02-03T11:57:58.630Z,120
2016-02-03T11:58:58.648Z,110
2016-02-03T12:07:19.099Z,110
2016-02-03T12:07:52.462Z,105
2016-02-03T12:08:52.480Z,105
2016-02-03T12:09:52.482Z,100
2016-02-03T12:10:52.485Z,105
2016-02-03T12:11:52.488Z,110
2016-02-03T12:12:52.507Z,115
2016-02-03T12:13:52.541Z,115
2016-02-03T12:14:52.513Z,110
2016-02-03T12:15:52.515Z,110
2016-02-03T12:16:52.518Z,115
2016-02-03T12:17:52.535Z,115
2016-02-03T12:18:52.562Z,120
2016-02-03T12:19:52.579Z,120
2016-02-03T12:20:52.551Z,125
2016-02-03T12:21:52.569Z,120
2016-02-03T12:22:52.572Z,110
2016-02-03T12:23:52.607Z,115
2016-02-03T12:24:52.594Z,115
2016-02-03T12:25:52.585Z,105
2016-02-03T12:26:52.588Z,115
2016-02-03T12:27:52.606Z,115
2016-02-03T12:28:52.656Z,115
2016-02-03T12:29:52.627Z,120
2016-02-03T12:32:17.041Z,95
2016-02-03T12:32:29.744Z,100
2016-02-03T12:33:29.700Z,100
2016-02-03T12:34:29.719Z,100
2016-02-03T12:35:29.724Z,100
2016-02-03T12:36:29.743Z,100
2016-02-03T12:37:29.730Z,100
2016-02-03T12:38:29.735Z,95
2016-02-03T12:39:29.737Z,100
2016-02-03T12:40:29.771Z,95
2016-02-03T12:41:29.774Z,90
2016-02-03T12:42:29.761Z,85
2016-02-03T12:43:29.765Z,90
2016-02-03T12:44:29.784Z,85
2016-02-03T12:45:29.802Z,85
2016-02-03T12:46:29.805Z,85
2016-02-03T12:47:29.807Z,85
2016-02-03T12:48:29.794Z,90
2016-02-03T12:49:29.813Z,90
2016-02-03T12:50:29.833Z,90
2016-02-03T12:51:29.820Z,85
2016-02-03T12:52:29.823Z,85
2016-02-03T12:53:29.840Z,85
2016-02-03T12:54:29.876Z,90
2016-02-03T12:55:29.879Z,85
2016-02-03T12:56:29.882Z,80
2016-02-03T12:57:29.885Z,80
2016-02-03T12:58:29.858Z,90
2016-02-03T12:59:29.891Z,90
2016-02-03T13:03:23.340Z,85
2016-02-03T13:04:19.155Z,85
2016-02-03T13:05:19.158Z,85
2016-02-03T13:06:19.177Z,90
2016-02-03T13:07:19.164Z,90
2016-02-03T13:08:19.182Z,90
2016-02-03T13:09:19.185Z,90
2016-02-03T13:10:19.187Z,90
2016-02-03T13:11:19.190Z,90
2016-02-03T13:12:19.068Z,85
2016-02-03T13:13:19.227Z,80
2016-02-03T13:14:19.229Z,80
2016-02-03T13:15:19.280Z,80
2016-02-03T13:16:19.251Z,80
2016-02-03T13:17:19.253Z,80
2016-02-03T13:18:19.240Z,75
2016-02-03T13:19:19.263Z,70
2016-02-03T13:20:19.265Z,85
2016-02-03T13:21:19.271Z,85
2016-02-03T13:22:19.274Z,90
2016-02-03T13:23:19.277Z,90
2016-02-03T13:24:19.294Z,85
2016-02-03T13:25:19.157Z,95
2016-02-03T13:26:19.333Z,90
2016-02-03T13:27:19.305Z,85
2016-02-03T13:28:19.323Z,85
2016-02-03T13:29:19.312Z,85
2016-02-03T13:35:22.893Z,70
2016-02-03T13:35:35.549Z,70
2016-02-03T13:36:35.552Z,70
2016-02-03T13:37:35.572Z,75
2016-02-03T13:38:35.574Z,70
2016-02-03T13:39:35.577Z,70
2016-02-03T13:40:35.582Z,65
2016-02-03T13:41:35.600Z,65
2016-02-03T13:42:35.587Z,65
2016-02-03T13:43:35.606Z,65
2016-02-03T13:44:35.608Z,70
2016-02-03T13:45:35.612Z,70
2016-02-03T13:46:35.645Z,70
2016-02-03T13:47:35.664Z,65
2016-02-03T13:48:35.636Z,65
2016-02-03T13:49:35.640Z,65
2016-02-03T13:50:35.657Z,65
2016-02-03T13:51:35.676Z,60
2016-02-03T13:52:35.678Z,60
2016-02-03T13:53:35.668Z,60
2016-02-03T13:54:35.686Z,55
2016-02-03T13:55:35.689Z,55
2016-02-03T13:56:35.707Z,55
2016-02-03T13:57:35.692Z,55
2016-02-03T13:58:35.695Z,55
2016-02-03T13:59:35.714Z,55
2016-02-03T14:02:50.025Z,50
2016-02-03T14:03:02.682Z,50
2016-02-03T14:04:02.684Z,50
2016-02-03T14:05:02.688Z,50
2016-02-03T14:06:02.705Z,50
2016-02-03T14:07:02.724Z,50
2016-02-03T14:08:02.742Z,50
2016-02-03T14:09:02.713Z,50
2016-02-03T14:10:02.716Z,50
2016-02-03T14:11:02.750Z,50
2016-02-03T14:12:02.754Z,50
2016-02-03T14:13:02.758Z,50
2016-02-03T14:14:02.760Z,50
2016-02-03T14:15:02.763Z,50
2016-02-03T14:16:02.766Z,50
2016-02-03T14:17:02.800Z,50
2016-02-03T14:18:02.803Z,50
2016-02-03T14:19:02.791Z,50
2016-02-03T14:20:02.793Z,45
2016-02-03T14:21:02.812Z,45
2016-02-03T14:22:02.830Z,45
2016-02-03T14:23:02.801Z,45
2016-02-03T14:24:02.835Z,40
2016-02-03T14:25:02.839Z,45
2016-02-03T14:26:02.857Z,45
2016-02-03T14:27:02.844Z,50
2016-02-03T14:28:02.893Z,55
2016-02-03T14:29:02.873Z,60
2016-02-03T14:30:43.234Z,60
2016-02-03T14:31:02.878Z,65
2016-02-03T14:32:02.897Z,65
2016-02-03T14:33:02.885Z,65
2016-02-03T14:34:02.887Z,65
2016-02-03T14:35:02.905Z,65
2016-02-03T14:36:02.940Z,65
2016-02-03T14:37:02.928Z,65
2016-02-03T14:38:02.915Z,65
2016-02-03T14:39:02.918Z,65
2016-02-03T14:40:02.937Z,65
2016-02-03T14:41:02.970Z,65
2016-02-03T14:42:02.958Z,65
2016-02-03T14:43:02.961Z,65
2016-02-03T14:44:02.839Z,60
2016-02-03T14:45:02.983Z,60
2016-02-03T14:46:02.985Z,60
2016-02-03T14:47:03.003Z,60
2016-02-03T14:48:02.990Z,60
2016-02-03T14:49:02.993Z,60
2016-02-03T14:50:03.027Z,60
2016-02-03T14:51:03.029Z,55
2016-02-03T14:52:03.017Z,55
2016-02-03T14:53:03.035Z,55
2016-02-03T14:54:03.053Z,55
2016-02-03T14:55:03.041Z,55
2016-02-03T14:56:03.046Z,55
2016-02-03T14:57:03.080Z,55
2016-02-03T14:58:03.161Z,55
2016-02-03T14:59:03.086Z,55
2016-02-03T15:02:00.470Z,50
2016-02-03T15:02:50.081Z,50
2016-02-03T15:03:49.820Z,50
2016-02-03T15:04:49.900Z,45
2016-02-03T15:05:49.903Z,45
2016-02-03T15:06:49.890Z,45
2016-02-03T15:07:49.926Z,45
2016-02-03T15:08:50.148Z,45
2016-02-03T15:09:50.166Z,45
2016-02-03T15:10:49.918Z,45
2016-02-03T15:11:49.953Z,40
2016-02-03T15:12:49.940Z,40
2016-02-03T15:13:49.991Z,40
2016-02-03T15:14:49.962Z,40
2016-02-03T15:15:49.981Z,40
2016-02-03T15:16:49.970Z,40
2016-02-03T15:17:50.003Z,40
2016-02-03T15:18:50.662Z,40
2016-02-03T15:19:50.761Z,35
2016-02-03T15:20:50.028Z,35
2016-02-03T15:21:50.016Z,35
2016-02-03T15:22:50.033Z,35
2016-02-03T15:23:50.053Z,35
2016-02-03T15:24:50.024Z,35
2016-02-03T15:25:51.870Z,30
2016-02-03T15:26:50.154Z,30
2016-02-03T15:27:49.922Z,30
2016-02-03T15:28:50.050Z,25
2016-02-03T15:29:50.084Z,25
2016-02-03T15:33:59.548Z,20
2016-02-03T15:34:40.548Z,20
2016-02-03T15:35:40.410Z,20
2016-02-03T15:36:39.351Z,20
2016-02-03T15:37:39.369Z,20